Time;durP1;ratioP1;P1;durP2;ratioP2;P2;SDS_P1;SDS_P2;PMS_P1;PMS_P2;Temp;Humidity;BMP_temperature;BMP_pressure;BME280_temperature;BME280_humidity;BME280_pressure;Samples;Min_cycle;Max_cycle;Signal;HPM_P1;HPM_P2
2022/05/14 00:01:00;;;;;;;6.57;2.30;;;;;;;10.85;100.00;97011.72;5007934;28;20054;-72
2022/05/14 00:03:27;;;;;;;7.88;2.50;;;;;;;10.80;100.00;96999.03;5008182;28;20492;-71
2022/05/14 00:05:54;;;;;;;7.57;2.47;;;;;;;10.79;100.00;97009.97;5008404;28;20038;-73
2022/05/14 00:08:21;;;;;;;8.70;3.03;;;;;;;10.72;100.00;97011.97;5012412;28;20037;-70
2022/05/14 00:13:32;;;;;;;8.10;2.92;;;;;;;10.81;100.00;97007.88;5009499;28;20048;-71
2022/05/14 00:15:57;;;;;;;12.63;2.60;;;;;;;10.55;100.00;97003.84;5008804;28;20038;-70
2022/05/14 00:18:23;;;;;;;9.25;2.63;;;;;;;10.57;100.00;97007.09;5009719;28;20034;-72
2022/05/14 00:20:50;;;;;;;13.32;2.75;;;;;;;10.65;100.00;96997.88;5007385;28;20445;-74
2022/05/14 00:23:16;;;;;;;9.48;3.05;;;;;;;10.64;100.00;97002.44;5010262;28;20065;-70
2022/05/14 00:25:42;;;;;;;7.35;2.20;;;;;;;10.49;100.00;96994.06;5008242;28;20117;-71
2022/05/14 00:28:07;;;;;;;11.38;2.90;;;;;;;10.41;100.00;96997.09;5009986;28;20491;-73
2022/05/14 00:30:34;;;;;;;13.63;2.70;;;;;;;10.47;100.00;96994.31;5006078;28;20134;-74
2022/05/14 00:32:59;;;;;;;6.72;2.75;;;;;;;10.47;100.00;97001.53;5011343;28;20123;-71
2022/05/14 00:35:26;;;;;;;7.03;2.70;;;;;;;10.60;100.00;97002.09;5013565;28;20698;-71
2022/05/14 00:37:52;;;;;;;9.38;3.22;;;;;;;10.59;100.00;96997.00;5012823;28;20041;-70
2022/05/14 00:40:25;;;;;;;11.48;2.83;;;;;;;10.52;100.00;96999.78;4998053;28;20045;-71
2022/05/14 00:42:52;;;;;;;6.13;2.60;;;;;;;10.46;100.00;96990.03;4985596;28;20124;-74
2022/05/14 00:45:19;;;;;;;9.02;2.90;;;;;;;10.47;100.00;97001.53;4995051;28;20041;-70
2022/05/14 00:47:48;;;;;;;6.47;2.90;;;;;;;10.60;100.00;97001.28;5001852;28;20496;-70
2022/05/14 00:50:22;;;;;;;6.85;3.00;;;;;;;10.56;100.00;97005.47;4995765;28;20120;-70
2022/05/14 00:52:51;;;;;;;9.73;2.92;;;;;;;10.53;100.00;97003.28;5013690;28;20516;-72
2022/05/14 00:55:18;;;;;;;8.27;3.03;;;;;;;10.48;100.00;97003.97;4994751;28;20026;-70
2022/05/14 00:57:45;;;;;;;7.80;2.72;;;;;;;10.54;100.00;97007.56;5013895;28;20034;-74
2022/05/14 01:00:15;;;;;;;8.90;2.58;;;;;;;10.73;100.00;97009.03;4997242;28;20071;-73
2022/05/14 01:02:41;;;;;;;9.93;2.67;;;;;;;10.75;100.00;97006.16;4993610;28;20575;-71
2022/05/14 01:05:10;;;;;;;9.57;2.80;;;;;;;10.77;100.00;97001.38;5011806;28;20072;-70
2022/05/14 01:07:38;;;;;;;8.27;2.70;;;;;;;10.81;100.00;97000.66;5010698;28;20267;-72
2022/05/14 01:10:07;;;;;;;9.73;2.55;;;;;;;10.75;100.00;97000.81;5000754;28;20505;-73
2022/05/14 01:12:34;;;;;;;10.73;2.50;;;;;;;10.74;100.00;97002.66;4998641;28;20088;-71
2022/05/14 01:15:08;;;;;;;9.52;2.58;;;;;;;10.74;100.00;97002.66;4996839;28;20052;-72
2022/05/14 01:17:33;;;;;;;8.05;2.33;;;;;;;10.71;100.00;96997.75;5013109;28;20124;-71
2022/05/14 01:20:01;;;;;;;10.07;2.30;;;;;;;10.79;100.00;97005.44;5009025;28;20083;-71
2022/05/14 01:22:58;;;;;;;5.80;2.03;;;;;;;10.77;100.00;97004.88;4997535;28;20417;-72
2022/05/14 01:28:32;;;;;;;7.47;2.83;;;;;;;10.68;100.00;97008.97;5010603;28;20414;-70
2022/05/14 01:31:00;;;;;;;8.63;2.28;;;;;;;10.48;100.00;96998.63;4994752;28;20049;-71
2022/05/14 01:33:28;;;;;;;6.78;2.08;;;;;;;10.51;100.00;97000.84;5000703;28;20072;-72
2022/05/14 01:35:54;;;;;;;7.20;2.25;;;;;;;10.45;100.00;96999.09;4998220;28;20040;-71
2022/05/14 01:38:23;;;;;;;10.23;2.35;;;;;;;10.42;100.00;97007.56;4992466;28;20045;-73
2022/05/14 01:40:48;;;;;;;10.35;2.53;;;;;;;10.41;100.00;97007.81;5009877;28;20045;-74
2022/05/14 01:43:14;;;;;;;9.00;2.17;;;;;;;10.30;100.00;97007.59;4993015;28;20099;-73
2022/05/14 01:45:40;;;;;;;5.97;2.17;;;;;;;10.39;100.00;97009.91;5000172;28;20295;-72
2022/05/14 01:48:07;;;;;;;6.78;2.58;;;;;;;10.33;100.00;97004.44;5010490;28;20038;-73
2022/05/14 01:50:33;;;;;;;9.40;2.70;;;;;;;10.32;100.00;97008.16;4993682;28;20566;-72
2022/05/14 01:52:59;;;;;;;9.93;2.03;;;;;;;10.29;100.00;97002.47;4994310;28;20544;-74
2022/05/14 01:55:25;;;;;;;8.52;2.22;;;;;;;10.20;100.00;97002.00;5009646;28;20287;-72
2022/05/14 01:57:52;;;;;;;9.80;2.38;;;;;;;10.02;100.00;97004.75;5010500;28;20041;-74
2022/05/14 02:00:21;;;;;;;8.23;2.58;;;;;;;10.01;100.00;97009.28;5008644;28;20072;-72
2022/05/14 02:02:51;;;;;;;5.78;2.13;;;;;;;9.94;100.00;97005.91;4995358;28;20528;-74
2022/05/14 02:05:18;;;;;;;9.30;2.33;;;;;;;9.68;100.00;97012.50;4990835;28;20038;-72
2022/05/14 02:07:44;;;;;;;9.68;2.53;;;;;;;9.62;100.00;97010.72;4999950;28;20520;-71
2022/05/14 02:10:10;;;;;;;5.57;2.30;;;;;;;9.72;100.00;97007.50;5011433;28;20041;-73
2022/05/14 02:12:37;;;;;;;10.23;2.10;;;;;;;9.78;100.00;97002.06;5009972;28;20124;-72
2022/05/14 02:15:03;;;;;;;6.97;2.80;;;;;;;9.72;100.00;97002.97;4999819;28;20088;-76
2022/05/14 02:17:29;;;;;;;11.57;2.20;;;;;;;9.80;100.00;97003.69;4999264;28;20038;-73
2022/05/14 02:19:55;;;;;;;8.10;2.28;;;;;;;9.69;100.00;97002.63;4997464;28;20404;-74
2022/05/14 02:22:21;;;;;;;10.18;3.20;;;;;;;9.56;100.00;97006.28;4996495;28;20146;-76
2022/05/14 02:24:47;;;;;;;4.93;2.35;;;;;;;9.56;100.00;97006.28;4994219;28;20459;-73
2022/05/14 02:27:13;;;;;;;8.38;2.50;;;;;;;9.53;100.00;97000.59;5011312;28;20475;-75
2022/05/14 02:29:53;;;;;;;7.40;2.50;;;;;;;9.60;100.00;97002.13;4994120;28;20352;-72
2022/05/14 02:32:21;;;;;;;6.03;2.60;;;;;;;9.55;100.00;97003.84;4991902;28;20055;-73
2022/05/14 02:34:47;;;;;;;8.23;2.40;;;;;;;9.53;100.00;97003.28;5010376;28;20072;-72
2022/05/14 02:37:15;;;;;;;4.82;1.98;;;;;;;9.48;100.00;97003.94;4995207;28;20045;-74
2022/05/14 02:39:40;;;;;;;8.02;2.22;;;;;;;9.20;100.00;96997.38;5009564;28;20038;-72
2022/05/14 02:42:06;;;;;;;6.82;2.30;;;;;;;9.01;100.00;97001.09;5009072;28;20046;-72
2022/05/14 02:44:32;;;;;;;9.23;2.70;;;;;;;8.88;100.00;97001.28;5010181;28;20034;-74
2022/05/14 02:46:57;;;;;;;7.88;1.98;;;;;;;8.75;100.00;96996.91;4991592;28;20068;-73
2022/05/14 02:49:23;;;;;;;6.68;2.60;;;;;;;8.77;100.00;96996.69;5010090;28;20029;-71
2022/05/14 02:51:48;;;;;;;7.18;2.60;;;;;;;8.60;100.00;96989.28;4997699;28;20467;-74
2022/05/14 02:54:14;;;;;;;8.80;2.33;;;;;;;8.53;100.00;96995.75;4995706;28;20548;-73
2022/05/14 02:56:39;;;;;;;7.75;2.25;;;;;;;8.70;100.00;96991.44;5008888;28;20045;-74
2022/05/14 02:59:08;;;;;;;7.85;2.30;;;;;;;8.81;100.00;96997.88;5010002;28;20042;-72
2022/05/14 03:01:47;;;;;;;9.55;2.45;;;;;;;8.82;100.00;96987.00;5000237;28;20076;-72
2022/05/14 03:04:16;;;;;;;6.68;2.20;;;;;;;8.73;100.00;96982.19;5005817;28;20045;-73
2022/05/14 03:06:42;;;;;;;6.22;2.35;;;;;;;8.67;100.00;96988.41;5009329;28;20116;-73
2022/05/14 03:09:08;;;;;;;9.50;2.28;;;;;;;8.63;100.00;96988.03;4993664;28;20047;-74
2022/05/14 03:11:33;;;;;;;6.50;2.05;;;;;;;8.62;100.00;96981.88;4994609;28;20041;-72
2022/05/14 03:13:59;;;;;;;6.38;2.22;;;;;;;8.60;100.00;96977.81;5011001;28;20041;-72
2022/05/14 03:16:25;;;;;;;7.90;2.22;;;;;;;8.62;100.00;96979.22;4990009;28;20041;-73
2022/05/14 03:18:50;;;;;;;5.65;2.08;;;;;;;8.51;100.00;96982.63;4994712;28;20035;-75
2022/05/14 03:21:16;;;;;;;10.70;2.35;;;;;;;8.43;100.00;96979.44;4998334;28;20049;-72
2022/05/14 03:23:42;;;;;;;5.93;2.03;;;;;;;8.50;100.00;96996.19;4996741;28;20361;-72
2022/05/14 03:26:07;;;;;;;5.20;2.10;;;;;;;8.34;100.00;96990.38;5010315;28;20033;-72
2022/05/14 03:28:33;;;;;;;7.18;2.30;;;;;;;8.33;100.00;97006.59;5009658;28;20094;-73
2022/05/14 03:30:59;;;;;;;6.07;1.95;;;;;;;8.33;100.00;96993.28;4992410;28;20046;-72
2022/05/14 03:33:25;;;;;;;7.40;2.05;;;;;;;8.23;100.00;96999.09;4992867;28;20084;-72
2022/05/14 03:35:50;;;;;;;7.80;2.13;;;;;;;8.26;100.00;97000.50;5009571;28;20099;-75
2022/05/14 03:38:16;;;;;;;8.48;2.60;;;;;;;8.35;100.00;96997.38;5009769;28;20088;-74
2022/05/14 03:40:42;;;;;;;11.10;1.88;;;;;;;8.21;100.00;97011.81;4994905;28;20038;-71
2022/05/14 03:43:07;;;;;;;8.70;2.20;;;;;;;8.20;100.00;97002.19;4991953;28;20108;-72
2022/05/14 03:45:33;;;;;;;6.78;2.15;;;;;;;8.25;100.00;97006.84;4998631;28;20404;-74
2022/05/14 03:47:58;;;;;;;7.43;2.20;;;;;;;8.17;100.00;97002.66;4998198;28;20053;-72
2022/05/14 03:50:24;;;;;;;7.70;2.00;;;;;;;8.24;100.00;96997.22;4998056;28;20314;-72
2022/05/14 03:52:50;;;;;;;5.93;1.98;;;;;;;8.30;100.00;97013.16;4997283;28;20148;-75
2022/05/14 03:55:15;;;;;;;9.82;2.50;;;;;;;8.41;100.00;97003.69;5010491;28;20049;-72
2022/05/14 03:57:41;;;;;;;6.68;1.98;;;;;;;8.48;100.00;96999.09;4998721;28;20064;-71
2022/05/14 04:00:08;;;;;;;6.38;2.10;;;;;;;8.35;100.00;97008.03;5008315;28;20161;-74
2022/05/14 04:02:38;;;;;;;;;;;;;;;8.33;100.00;97007.41;5023797;28;20095;-72
2022/05/14 04:05:05;;;;;;;6.38;2.22;;;;;;;8.34;100.00;97009.03;5028957;28;20335;-74
2022/05/14 04:07:30;;;;;;;9.20;2.17;;;;;;;8.28;100.00;96998.44;5016925;28;20064;-72
2022/05/14 04:09:56;;;;;;;7.40;2.40;;;;;;;8.23;100.00;97000.94;5032703;28;20127;-76
2022/05/14 04:12:22;;;;;;;10.45;2.63;;;;;;;8.20;100.00;97006.72;5030898;28;20463;-74
2022/05/14 04:14:47;;;;;;;6.80;2.17;;;;;;;8.25;100.00;97006.84;5021185;28;20036;-76
2022/05/14 04:17:13;;;;;;;9.55;1.95;;;;;;;8.16;100.00;97005.50;5016904;28;20029;-72
2022/05/14 04:19:39;;;;;;;6.57;1.83;;;;;;;8.24;100.00;97005.22;5034155;28;20435;-72
2022/05/14 04:22:05;;;;;;;10.45;1.92;;;;;;;8.33;100.00;97001.28;5018628;28;20041;-73
2022/05/14 04:24:34;;;;;;;10.57;2.25;;;;;;;8.42;100.00;97007.16;5021132;28;20083;-74
2022/05/14 04:27:00;;;;;;;5.72;2.17;;;;;;;8.49;100.00;97006.06;5018110;28;20446;-72
2022/05/14 04:29:26;;;;;;;6.47;1.98;;;;;;;8.42;100.00;97010.63;5005758;28;20138;-73
2022/05/14 04:31:51;;;;;;;4.90;1.90;;;;;;;8.38;100.00;97006.75;5030822;28;20780;-71
2022/05/14 04:34:20;;;;;;;6.35;2.10;;;;;;;8.38;100.00;97009.44;5034431;28;20043;-72
2022/05/14 04:36:46;;;;;;;10.43;2.20;;;;;;;8.38;100.00;97009.44;5032045;28;20055;-73
2022/05/14 04:39:11;;;;;;;7.43;2.20;;;;;;;8.53;100.00;97004.56;5012644;28;20553;-73
2022/05/14 04:41:37;;;;;;;8.50;1.98;;;;;;;8.45;100.00;97001.38;5018859;28;20600;-71
2022/05/14 04:44:04;;;;;;;4.65;1.80;;;;;;;8.61;100.00;97020.25;5018698;28;20041;-75
2022/05/14 04:46:30;;;;;;;7.85;2.00;;;;;;;8.61;100.00;97009.59;5015225;28;20029;-72
2022/05/14 04:48:57;;;;;;;7.30;1.95;;;;;;;8.67;100.00;97012.41;5020976;28;20049;-72
2022/05/14 04:51:22;;;;;;;9.27;1.80;;;;;;;8.71;100.00;97009.06;5029980;28;20095;-72
2022/05/14 04:53:49;;;;;;;7.15;2.05;;;;;;;8.74;100.00;97013.16;5017732;28;20095;-74
2022/05/14 04:56:14;;;;;;;9.32;2.17;;;;;;;8.67;100.00;97009.75;5013029;28;20037;-72
2022/05/14 04:58:40;;;;;;;9.50;1.98;;;;;;;8.65;100.00;97017.97;5033762;28;20041;-73
2022/05/14 05:01:05;;;;;;;4.97;1.83;;;;;;;8.77;100.00;97012.69;5016367;28;20059;-72
2022/05/14 05:03:31;;;;;;;7.50;1.90;;;;;;;8.88;100.00;97020.78;5016745;28;20080;-74
2022/05/14 05:06:01;;;;;;;8.55;2.10;;;;;;;9.03;100.00;97030.28;5012404;28;20041;-71
2022/05/14 05:08:31;;;;;;;8.85;1.92;;;;;;;9.13;100.00;97028.69;5029406;28;20037;-73
2022/05/14 05:10:57;;;;;;;5.82;1.90;;;;;;;9.25;100.00;97031.38;5030975;28;20045;-72
2022/05/14 05:13:26;;;;;;;8.07;2.22;;;;;;;9.33;100.00;97033.75;5032527;28;20117;-72
2022/05/14 05:15:52;;;;;;;5.90;1.73;;;;;;;9.44;100.00;97027.66;5029245;28;20048;-73
2022/05/14 05:18:19;;;;;;;7.60;1.65;;;;;;;9.60;100.00;97031.53;5032658;28;20047;-71
2022/05/14 05:20:48;;;;;;;7.43;1.90;;;;;;;9.74;100.00;97035.63;5030199;28;20049;-71
2022/05/14 05:23:20;;;;;;;13.05;3.10;;;;;;;9.82;100.00;97037.16;5032213;28;20581;-73
2022/05/14 05:25:46;;;;;;;6.78;2.30;;;;;;;9.84;100.00;97028.91;5029989;28;20076;-72
2022/05/14 05:28:12;;;;;;;8.60;2.20;;;;;;;9.88;100.00;97030.06;5030219;28;20045;-70
2022/05/14 05:30:39;;;;;;;9.27;2.33;;;;;;;9.90;100.00;97042.19;5027852;28;20087;-73
2022/05/14 05:33:08;;;;;;;8.98;2.17;;;;;;;9.96;100.00;97040.44;5031450;28;20514;-72
2022/05/14 05:35:34;;;;;;;5.88;2.03;;;;;;;10.04;100.00;97038.25;5030878;28;20049;-74
2022/05/14 05:37:59;;;;;;;7.75;2.40;;;;;;;10.16;100.00;97032.91;5029269;28;20040;-71
2022/05/14 05:40:25;;;;;;;6.15;2.20;;;;;;;10.28;100.00;97028.41;5027721;28;20041;-73
2022/05/14 05:42:50;;;;;;;8.85;2.10;;;;;;;10.40;100.00;97039.09;5031724;28;20172;-73
2022/05/14 05:45:16;;;;;;;7.38;1.90;;;;;;;10.49;100.00;97034.22;5027962;28;20150;-72
2022/05/14 05:47:42;;;;;;;6.18;2.50;;;;;;;10.60;100.00;97033.41;5027052;28;20451;-71
2022/05/14 05:50:09;;;;;;;6.35;2.00;;;;;;;10.70;100.00;97033.63;5029759;28;20048;-72
2022/05/14 05:52:34;;;;;;;5.82;1.90;;;;;;;10.78;100.00;97032.44;5032637;28;20077;-73
2022/05/14 05:57:45;;;;;;;8.00;2.03;;;;;;;10.93;100.00;97037.31;5030027;28;20071;-73
2022/05/14 06:00:15;;;;;;;9.02;1.95;;;;;;;10.94;100.00;97039.75;5029111;28;20036;-74
2022/05/14 06:02:40;;;;;;;5.78;1.85;;;;;;;11.03;100.00;97040.19;5031417;28;20052;-73
2022/05/14 06:05:07;;;;;;;6.00;1.83;;;;;;;11.11;100.00;97045.16;5030960;28;20041;-72
2022/05/14 06:07:36;;;;;;;5.35;1.70;;;;;;;11.13;100.00;97043.91;5030790;28;20413;-72
2022/05/14 06:10:04;;;;;;;5.70;1.98;;;;;;;11.16;100.00;97042.59;5030791;28;20335;-72
2022/05/14 06:12:30;;;;;;;10.07;1.85;;;;;;;11.19;100.00;97039.44;5019204;28;20104;-71
2022/05/14 06:14:55;;;;;;;6.70;1.90;;;;;;;11.24;100.00;97044.09;5030072;28;20506;-72
2022/05/14 06:17:21;;;;;;;5.13;1.85;;;;;;;11.26;100.00;97039.28;5027580;28;20041;-72
2022/05/14 06:19:48;;;;;;;8.10;1.90;;;;;;;11.30;100.00;97041.28;5025593;28;20525;-72
2022/05/14 06:22:13;;;;;;;5.90;1.90;;;;;;;11.33;100.00;97045.34;5027252;28;20041;-75
2022/05/14 06:24:39;;;;;;;6.88;1.88;;;;;;;11.37;100.00;97039.28;5029692;28;20044;-72
2022/05/14 06:27:05;;;;;;;7.78;2.00;;;;;;;11.40;100.00;97044.13;5028706;28;20042;-71
2022/05/14 06:29:31;;;;;;;11.43;2.22;;;;;;;11.42;100.00;97047.38;5028808;28;20045;-73
2022/05/14 06:31:58;;;;;;;5.88;2.00;;;;;;;11.41;100.00;97048.44;5029397;28;20045;-72
2022/05/14 06:34:24;;;;;;;8.50;2.00;;;;;;;11.44;100.00;97058.69;5033836;28;20079;-71
2022/05/14 06:36:50;;;;;;;6.78;1.95;;;;;;;11.47;100.00;97061.94;5030190;28;20425;-73
2022/05/14 06:39:16;;;;;;;11.43;2.10;;;;;;;11.52;100.00;97062.06;5028738;28;20040;-72
2022/05/14 06:41:42;;;;;;;6.65;2.33;;;;;;;11.52;100.00;97064.72;5029662;28;20431;-73
2022/05/14 06:44:08;;;;;;;6.40;2.00;;;;;;;11.52;100.00;97057.50;5026859;28;20033;-72
2022/05/14 06:46:34;;;;;;;5.07;1.90;;;;;;;11.61;100.00;97065.97;5028328;28;20302;-71
2022/05/14 06:49:00;;;;;;;6.53;1.73;;;;;;;11.61;100.00;97072.16;5030150;28;20048;-71
2022/05/14 06:51:28;;;;;;;11.90;2.55;;;;;;;11.65;100.00;97073.28;5030390;28;20053;-71
2022/05/14 06:54:01;;;;;;;12.10;2.20;;;;;;;11.67;100.00;97070.34;5030049;28;20041;-74
2022/05/14 06:56:30;;;;;;;6.18;1.90;;;;;;;11.73;100.00;97077.44;5028864;28;20096;-73
2022/05/14 06:58:57;;;;;;;6.97;1.80;;;;;;;11.81;100.00;97079.75;5031970;28;20028;-71
2022/05/14 07:01:23;;;;;;;6.20;2.10;;;;;;;11.85;100.00;97080.09;5011852;28;20057;-71
2022/05/14 07:06:40;;;;;;;6.85;3.05;;;;;;;11.88;100.00;97080.44;5014208;28;20052;-72
2022/05/14 07:09:16;;;;;;;8.20;1.90;;;;;;;11.88;100.00;97083.09;5010659;28;20038;-73
2022/05/14 07:11:44;;;;;;;5.70;1.77;;;;;;;11.92;100.00;97086.13;5008575;28;20152;-73
2022/05/14 07:14:12;;;;;;;12.50;2.15;;;;;;;11.94;100.00;97084.81;4994607;28;20041;-73
2022/05/14 07:16:38;;;;;;;6.20;1.80;;;;;;;12.01;100.00;97087.38;5010103;28;20144;-72
2022/05/14 07:19:06;;;;;;;10.05;2.10;;;;;;;11.77;100.00;97092.00;5011688;28;20049;-71
2022/05/14 07:21:42;;;;;;;11.63;1.95;;;;;;;11.83;100.00;97093.75;5011610;28;20048;-72
2022/05/14 07:24:12;;;;;;;8.60;2.53;;;;;;;11.91;100.00;97098.72;4991956;28;20572;-72
2022/05/14 07:26:39;;;;;;;6.72;1.85;;;;;;;11.92;100.00;97099.53;4997961;28;20566;-72
2022/05/14 07:29:07;;;;;;;9.60;2.30;;;;;;;11.93;100.00;97085.06;5011311;28;20187;-73
2022/05/14 07:31:34;;;;;;;10.27;2.15;;;;;;;12.02;100.00;97090.84;5009034;28;20457;-73
2022/05/14 07:34:00;;;;;;;9.75;2.10;;;;;;;12.02;100.00;97088.16;5010572;28;20596;-74
2022/05/14 07:36:29;;;;;;;6.15;1.83;;;;;;;11.97;100.00;97095.06;5009520;28;20124;-74
2022/05/14 07:38:58;;;;;;;5.90;2.08;;;;;;;12.05;100.00;97095.72;5010228;28;20271;-72
2022/05/14 07:41:26;;;;;;;8.00;2.47;;;;;;;12.11;100.00;97090.22;5010404;28;20054;-73
2022/05/14 07:43:55;;;;;;;7.15;2.03;;;;;;;12.18;100.00;97095.41;5012294;28;20045;-76
2022/05/14 07:46:26;;;;;;;12.55;2.00;;;;;;;12.35;100.00;97093.56;5010340;28;20038;-73
2022/05/14 07:48:53;;;;;;;8.20;2.00;;;;;;;12.42;100.00;97102.25;5014196;28;20566;-73
2022/05/14 07:51:19;;;;;;;8.43;2.17;;;;;;;12.42;100.00;97096.88;5011009;28;20045;-75
2022/05/14 07:53:46;;;;;;;8.10;2.20;;;;;;;12.55;100.00;97101.94;5016162;28;20052;-73
2022/05/14 07:56:12;;;;;;;6.80;1.77;;;;;;;12.76;100.00;97103.06;5014580;28;21266;-72
2022/05/14 07:58:39;;;;;;;5.57;1.65;;;;;;;12.77;100.00;97101.19;5014540;28;20456;-75
2022/05/14 08:01:05;;;;;;;4.78;1.83;;;;;;;12.90;100.00;97094.63;5028403;28;20060;-72
2022/05/14 08:03:32;;;;;;;8.77;2.00;;;;;;;13.00;100.00;97100.97;5033916;28;20036;-74
2022/05/14 08:05:58;;;;;;;5.97;1.90;;;;;;;13.13;100.00;97089.03;5035602;28;20045;-71
2022/05/14 08:08:24;;;;;;;8.88;1.85;;;;;;;13.30;100.00;97089.00;5033212;28;20049;-71
2022/05/14 08:10:51;;;;;;;26.50;3.17;;;;;;;13.39;100.00;97095.59;5025338;28;20029;-74
2022/05/14 08:13:17;;;;;;;7.45;1.95;;;;;;;13.49;100.00;97100.28;5036713;28;20097;-73
2022/05/14 08:15:45;;;;;;;6.40;1.80;;;;;;;13.47;100.00;97092.47;5032103;28;20029;-74
2022/05/14 08:18:11;;;;;;;11.10;1.98;;;;;;;13.43;100.00;97098.56;5033943;28;20120;-73
2022/05/14 08:20:39;;;;;;;7.78;1.83;;;;;;;13.54;100.00;97095.78;5034403;28;20357;-72
2022/05/14 08:25:52;;;;;;;8.10;2.05;;;;;;;13.71;100.00;97095.69;5031786;28;20088;-75
2022/05/14 08:28:19;;;;;;;5.47;1.73;;;;;;;13.81;100.00;97094.97;5033633;28;20353;-72
2022/05/14 08:30:45;;;;;;;6.35;1.38;;;;;;;13.84;100.00;97097.13;5034793;28;20496;-72
2022/05/14 08:33:11;;;;;;;6.22;1.50;;;;;;;13.64;100.00;97087.00;5034390;28;20044;-74
2022/05/14 08:35:37;;;;;;;5.40;1.60;;;;;;;13.61;100.00;97090.97;5016678;28;20045;-72
2022/05/14 08:38:03;;;;;;;5.18;1.70;;;;;;;13.74;100.00;97088.97;5033165;28;20049;-73
2022/05/14 08:40:38;;;;;;;6.72;1.60;;;;;;;13.87;100.00;97088.56;5035258;28;20033;-72
2022/05/14 08:43:21;;;;;;;5.88;1.98;;;;;;;13.90;100.00;97088.88;5032296;28;20270;-74
2022/05/14 08:45:46;;;;;;;5.07;1.80;;;;;;;13.98;100.00;97087.59;5031245;28;20516;-72
2022/05/14 08:48:12;;;;;;;8.70;2.08;;;;;;;14.10;100.00;97093.66;5031936;28;20100;-72
2022/05/14 08:50:39;;;;;;;8.05;1.83;;;;;;;14.15;100.00;97082.91;5033460;28;20112;-72
2022/05/14 08:53:11;;;;;;;10.23;1.95;;;;;;;14.21;100.00;97079.19;5033914;28;20193;-72
2022/05/14 08:55:46;;;;;;;6.32;1.67;;;;;;;14.40;100.00;97085.03;5031415;28;20056;-72
2022/05/14 08:58:29;;;;;;;8.40;1.73;;;;;;;14.44;100.00;97085.31;5032403;28;20037;-73
2022/05/14 09:01:03;;;;;;;5.10;1.90;;;;;;;14.50;100.00;97084.31;5030206;28;20072;-74
2022/05/14 09:03:29;;;;;;;8.88;1.42;;;;;;;14.51;100.00;97082.44;5031567;28;20041;-72
2022/05/14 09:05:57;;;;;;;5.40;1.83;;;;;;;14.56;100.00;97083.28;5031560;28;20129;-72
2022/05/14 09:08:24;;;;;;;4.80;1.67;;;;;;;14.70;100.00;97084.44;5031201;28;20681;-72
2022/05/14 09:11:01;;;;;;;5.78;1.92;;;;;;;14.72;100.00;97074.25;5031720;28;20116;-72
2022/05/14 09:13:28;;;;;;;11.68;2.20;;;;;;;14.85;100.00;97082.91;5032839;28;20033;-72
2022/05/14 09:15:57;;;;;;;5.97;1.50;;;;;;;14.93;100.00;97075.16;5030457;28;20048;-72
2022/05/14 09:18:42;;;;;;;4.75;1.50;;;;;;;14.96;98.94;97080.03;5033897;28;20045;-71
2022/05/14 09:21:21;;;;;;;8.32;1.60;;;;;;;15.17;100.00;97066.66;5031997;28;20103;-72
2022/05/14 09:23:54;;;;;;;7.50;1.30;;;;;;;15.53;94.33;97063.00;5035791;28;20353;-71
2022/05/14 09:26:31;;;;;;;4.05;1.42;;;;;;;15.69;89.05;97066.59;5031278;28;20047;-71
2022/05/14 09:29:13;;;;;;;5.25;1.25;;;;;;;15.86;93.10;97064.47;5032960;28;20099;-71
2022/05/14 09:31:51;;;;;;;6.07;1.40;;;;;;;15.84;89.58;97055.03;5033001;28;20045;-71
2022/05/14 09:34:18;;;;;;;4.60;1.25;;;;;;;15.69;91.67;97055.00;5031682;28;20044;-71
2022/05/14 09:36:48;;;;;;;2.95;1.10;;;;;;;15.78;92.68;97056.09;5033317;28;20511;-71
2022/05/14 09:39:22;;;;;;;5.85;1.20;;;;;;;16.12;87.92;97053.72;5032436;28;20111;-71
2022/05/14 09:41:53;;;;;;;7.47;1.33;;;;;;;16.36;86.51;97059.41;5031844;28;20107;-71
2022/05/14 09:44:52;;;;;;;7.57;1.10;;;;;;;16.47;88.47;97054.78;5030365;28;20037;-71
2022/05/14 09:47:27;;;;;;;7.28;1.20;;;;;;;16.68;87.94;97051.78;4979204;28;20154;-73
2022/05/14 09:50:02;;;;;;;6.85;1.30;;;;;;;16.92;83.58;97048.53;5032302;28;20037;-71
2022/05/14 09:52:32;;;;;;;6.05;1.10;;;;;;;17.07;90.89;97058.50;5030859;28;20285;-73
2022/05/14 09:55:01;;;;;;;4.17;1.23;;;;;;;16.96;83.04;97055.84;5030058;28;20042;-72
2022/05/14 09:58:05;;;;;;;4.55;1.23;;;;;;;16.93;83.26;97050.94;5030178;28;20310;-71
2022/05/14 10:00:42;;;;;;;7.22;1.35;;;;;;;17.29;82.88;97045.44;5029568;28;20080;-73
2022/05/14 10:03:27;;;;;;;3.70;0.68;;;;;;;17.38;76.50;97037.56;5013185;28;20082;-71
2022/05/14 10:06:11;;;;;;;3.47;0.90;;;;;;;17.40;73.56;97044.28;5030499;28;20048;-72
2022/05/14 10:08:51;;;;;;;4.80;1.30;;;;;;;17.53;69.03;97041.00;5030147;28;20514;-72
2022/05/14 10:11:28;;;;;;;5.07;0.88;;;;;;;17.74;67.37;97044.44;5030353;28;20119;-72
2022/05/14 10:14:07;;;;;;;6.88;1.08;;;;;;;17.89;69.25;97043.50;5030379;28;20060;-72
2022/05/14 10:16:39;;;;;;;6.55;0.93;;;;;;;18.04;65.14;97046.09;5029567;28;20491;-72
2022/05/14 10:19:17;;;;;;;5.03;1.00;;;;;;;18.20;77.24;97037.88;5029283;28;20581;-72
2022/05/14 10:22:01;;;;;;;3.33;1.00;;;;;;;18.24;61.92;97039.75;5032214;28;20052;-71
2022/05/14 10:27:37;;;;;;;2.88;0.98;;;;;;;18.69;60.47;97042.34;5027704;28;20088;-72
2022/05/14 10:30:09;;;;;;;3.17;0.85;;;;;;;18.79;52.31;97037.63;5028384;28;20384;-72
2022/05/14 10:32:37;;;;;;;2.65;0.90;;;;;;;18.94;54.58;97039.38;5029392;28;20163;-73
2022/05/14 10:35:27;;;;;;;5.55;1.00;;;;;;;19.13;52.63;97039.44;5030417;28;20480;-72
2022/05/14 10:38:04;;;;;;;2.78;0.82;;;;;;;19.24;54.62;97035.50;5029043;28;20037;-74
2022/05/14 10:40:35;;;;;;;4.32;0.90;;;;;;;19.55;57.67;97035.13;5031957;28;20932;-71
2022/05/14 10:43:07;;;;;;;;;;;;;;;19.86;53.80;97041.78;5029383;28;20571;-72
2022/05/14 10:45:47;;;;;;;6.43;0.95;;;;;;;20.02;49.94;97047.78;5028868;28;20394;-71
2022/05/14 10:48:50;;;;;;;3.57;1.13;;;;;;;20.04;50.24;97035.53;5030813;28;20045;-71
2022/05/14 10:51:23;;;;;;;5.20;1.23;;;;;;;19.99;46.54;97037.50;5030986;28;20037;-71
2022/05/14 10:53:49;;;;;;;5.10;1.10;;;;;;;20.40;50.75;97039.59;5029563;28;20041;-71
2022/05/14 10:56:24;;;;;;;3.95;1.10;;;;;;;20.20;54.78;97030.66;5030664;28;20041;-71
2022/05/14 10:59:00;;;;;;;3.22;1.02;;;;;;;20.91;44.47;97025.09;5016277;28;20133;-73
2022/05/14 11:01:52;;;;;;;5.03;1.00;;;;;;;21.54;43.39;97025.22;5015790;28;20049;-72
2022/05/14 11:04:20;;;;;;;5.20;1.65;;;;;;;21.87;41.24;97022.34;5031488;28;20041;-73
2022/05/14 11:06:51;;;;;;;4.90;1.00;;;;;;;22.94;40.97;97028.69;5029837;28;20036;-73
2022/05/14 11:09:43;;;;;;;;;;;;;;;23.51;40.13;97020.56;5031072;28;20047;-73
2022/05/14 11:12:14;;;;;;;6.85;1.40;;;;;;;24.25;36.62;97022.38;5022724;28;19916;-72
2022/05/14 11:14:57;;;;;;;3.42;1.27;;;;;;;25.89;32.65;97006.50;5028366;28;20056;-72
2022/05/14 11:17:27;;;;;;;7.45;1.20;;;;;;;27.38;31.41;96998.00;5029224;28;20060;-72
2022/05/14 11:20:08;;;;;;;3.17;1.13;;;;;;;27.24;32.00;97014.06;5030718;28;20112;-72
2022/05/14 11:22:44;;;;;;;3.75;1.13;;;;;;;28.70;28.43;97003.84;5031675;28;20036;-73
2022/05/14 11:25:24;;;;;;;5.97;1.33;;;;;;;29.98;27.79;97008.94;5029450;28;20036;-71
2022/05/14 11:28:12;;;;;;;5.72;1.13;;;;;;;31.80;22.97;97010.31;5031133;28;20374;-73
2022/05/14 11:30:39;;;;;;;3.13;0.90;;;;;;;32.12;23.11;96994.94;5029736;28;20455;-71
2022/05/14 11:33:19;;;;;;;2.40;0.98;;;;;;;31.51;22.49;97009.06;5032323;28;20566;-71
2022/05/14 11:35:46;;;;;;;4.40;1.40;;;;;;;32.05;23.09;97005.13;5033672;28;20042;-71
2022/05/14 11:38:23;;;;;;;3.35;1.08;;;;;;;32.36;22.63;96996.44;5008906;28;20096;-73
2022/05/14 11:40:59;;;;;;;3.47;1.00;;;;;;;32.17;21.88;96996.59;5030512;28;20041;-71
2022/05/14 11:43:31;;;;;;;4.63;1.10;;;;;;;34.36;20.25;96989.72;5030788;28;20628;-73
2022/05/14 11:46:26;;;;;;;9.57;1.30;;;;;;;35.34;18.88;96986.78;5029249;28;20075;-71
2022/05/14 11:49:04;;;;;;;3.88;1.00;;;;;;;35.49;18.44;96993.94;5032278;28;20451;-72
2022/05/14 11:51:39;;;;;;;5.38;1.35;;;;;;;36.30;19.38;96991.34;5028791;28;20954;-72
2022/05/14 11:54:06;;;;;;;3.42;1.02;;;;;;;36.53;18.49;96977.75;5028918;28;20050;-72
2022/05/14 11:56:40;;;;;;;4.13;1.17;;;;;;;37.14;17.96;96982.94;5029088;28;20477;-72